sensor_id;sensor_type;location;lat;lon;timestamp;temperature;humidity
2327;DHT22;1174;51.588;7.328;2023-02-28T00:01:32;2.50;99.90
2327;DHT22;1174;51.588;7.328;2023-02-28T00:04:00;2.60;99.90
2327;DHT22;1174;51.588;7.328;2023-02-28T00:06:28;2.60;99.90
2327;DHT22;1174;51.588;7.328;2023-02-28T00:08:55;2.50;99.90
2327;DHT22;1174;51.588;7.328;2023-02-28T00:11:22;2.50;99.90
2327;DHT22;1174;51.588;7.328;2023-02-28T00:13:49;2.60;99.90
2327;DHT22;1174;51.588;7.328;2023-02-28T00:16:19;2.50;99.90
2327;DHT22;1174;51.588;7.328;2023-02-28T00:18:46;2.60;99.90
2327;DHT22;1174;51.588;7.328;2023-02-28T00:21:14;2.50;99.90
2327;DHT22;1174;51.588;7.328;2023-02-28T00:23:42;2.50;99.90
2327;DHT22;1174;51.588;7.328;2023-02-28T00:26:09;2.50;99.90
2327;DHT22;1174;51.588;7.328;2023-02-28T00:28:36;2.40;99.90
2327;DHT22;1174;51.588;7.328;2023-02-28T00:31:03;2.40;99.90
2327;DHT22;1174;51.588;7.328;2023-02-28T00:33:30;2.30;99.90
2327;DHT22;1174;51.588;7.328;2023-02-28T00:36:05;2.30;99.90
2327;DHT22;1174;51.588;7.328;2023-02-28T00:38:32;2.30;99.90
2327;DHT22;1174;51.588;7.328;2023-02-28T00:41:01;2.20;99.90
2327;DHT22;1174;51.588;7.328;2023-02-28T00:43:32;2.20;99.90
2327;DHT22;1174;51.588;7.328;2023-02-28T00:45:59;2.30;99.90
2327;DHT22;1174;51.588;7.328;2023-02-28T00:48:26;2.20;99.90
2327;DHT22;1174;51.588;7.328;2023-02-28T00:50:53;2.20;99.90
2327;DHT22;1174;51.588;7.328;2023-02-28T00:53:20;2.20;99.90
2327;DHT22;1174;51.588;7.328;2023-02-28T00:55:48;2.20;99.90
2327;DHT22;1174;51.588;7.328;2023-02-28T00:58:16;2.20;99.90
2327;DHT22;1174;51.588;7.328;2023-02-28T01:00:44;2.20;99.90
2327;DHT22;1174;51.588;7.328;2023-02-28T01:03:15;2.20;99.90
2327;DHT22;1174;51.588;7.328;2023-02-28T01:05:42;2.20;99.90
2327;DHT22;1174;51.588;7.328;2023-02-28T01:08:09;2.10;99.90
2327;DHT22;1174;51.588;7.328;2023-02-28T01:10:36;2.10;99.90
2327;DHT22;1174;51.588;7.328;2023-02-28T01:13:04;2.10;99.90
2327;DHT22;1174;51.588;7.328;2023-02-28T01:15:32;2.10;99.90
2327;DHT22;1174;51.588;7.328;2023-02-28T01:17:59;2.10;99.90
2327;DHT22;1174;51.588;7.328;2023-02-28T01:20:26;2.10;99.90
2327;DHT22;1174;51.588;7.328;2023-02-28T01:22:53;2.00;99.90
2327;DHT22;1174;51.588;7.328;2023-02-28T01:25:20;2.10;99.90
2327;DHT22;1174;51.588;7.328;2023-02-28T01:27:47;2.00;99.90
2327;DHT22;1174;51.588;7.328;2023-02-28T01:30:14;2.00;99.90
2327;DHT22;1174;51.588;7.328;2023-02-28T01:32:42;2.10;99.90
2327;DHT22;1174;51.588;7.328;2023-02-28T01:35:09;2.00;99.90
2327;DHT22;1174;51.588;7.328;2023-02-28T01:37:36;1.90;99.90
2327;DHT22;1174;51.588;7.328;2023-02-28T01:40:04;1.90;99.90
2327;DHT22;1174;51.588;7.328;2023-02-28T01:42:31;1.80;99.90
2327;DHT22;1174;51.588;7.328;2023-02-28T01:45:02;1.60;99.90
2327;DHT22;1174;51.588;7.328;2023-02-28T01:47:32;1.60;99.90
2327;DHT22;1174;51.588;7.328;2023-02-28T01:50:03;1.50;99.90
2327;DHT22;1174;51.588;7.328;2023-02-28T01:52:32;1.50;99.90
2327;DHT22;1174;51.588;7.328;2023-02-28T01:55:01;1.50;99.90
2327;DHT22;1174;51.588;7.328;2023-02-28T01:57:32;1.30;99.90
2327;DHT22;1174;51.588;7.328;2023-02-28T02:00:06;1.10;99.90
2327;DHT22;1174;51.588;7.328;2023-02-28T02:02:36;1.00;99.90
2327;DHT22;1174;51.588;7.328;2023-02-28T02:05:07;1.00;99.90
2327;DHT22;1174;51.588;7.328;2023-02-28T02:07:37;1.00;99.90
2327;DHT22;1174;51.588;7.328;2023-02-28T02:10:10;1.00;99.90
2327;DHT22;1174;51.588;7.328;2023-02-28T02:13:10;0.90;99.90
2327;DHT22;1174;51.588;7.328;2023-02-28T02:15:44;0.70;99.90
2327;DHT22;1174;51.588;7.328;2023-02-28T02:18:26;0.60;99.90
2327;DHT22;1174;51.588;7.328;2023-02-28T02:24:45;0.60;99.90
2327;DHT22;1174;51.588;7.328;2023-02-28T02:27:36;0.70;99.90
2327;DHT22;1174;51.588;7.328;2023-02-28T02:36:02;0.30;99.90
2327;DHT22;1174;51.588;7.328;2023-02-28T02:38:33;0.30;99.90
2327;DHT22;1174;51.588;7.328;2023-02-28T02:41:11;0.20;99.90
2327;DHT22;1174;51.588;7.328;2023-02-28T02:43:44;0.20;99.90
2327;DHT22;1174;51.588;7.328;2023-02-28T02:46:17;0.10;99.90
2327;DHT22;1174;51.588;7.328;2023-02-28T02:48:46;0.20;99.90
2327;DHT22;1174;51.588;7.328;2023-02-28T02:51:16;0.10;99.90
2327;DHT22;1174;51.588;7.328;2023-02-28T02:53:47;0.10;99.90
2327;DHT22;1174;51.588;7.328;2023-02-28T02:56:18;0.10;99.90
2327;DHT22;1174;51.588;7.328;2023-02-28T02:58:47;0.00;99.90
2327;DHT22;1174;51.588;7.328;2023-02-28T03:01:18;0.10;99.90
2327;DHT22;1174;51.588;7.328;2023-02-28T03:03:55;0.20;99.90
2327;DHT22;1174;51.588;7.328;2023-02-28T03:06:24;0.20;99.90
2327;DHT22;1174;51.588;7.328;2023-02-28T03:08:51;0.10;99.90
2327;DHT22;1174;51.588;7.328;2023-02-28T03:11:19;0.00;99.90
2327;DHT22;1174;51.588;7.328;2023-02-28T03:16:54;0.00;99.90
2327;DHT22;1174;51.588;7.328;2023-02-28T03:19:38;-0.10;99.90
2327;DHT22;1174;51.588;7.328;2023-02-28T03:22:17;-0.10;99.90
2327;DHT22;1174;51.588;7.328;2023-02-28T03:24:51;-0.20;99.90
2327;DHT22;1174;51.588;7.328;2023-02-28T03:27:25;-0.30;99.90
2327;DHT22;1174;51.588;7.328;2023-02-28T03:29:58;-0.20;99.90
2327;DHT22;1174;51.588;7.328;2023-02-28T03:32:29;-0.20;99.90
2327;DHT22;1174;51.588;7.328;2023-02-28T03:35:02;-0.20;99.90
2327;DHT22;1174;51.588;7.328;2023-02-28T03:37:35;-0.20;99.90
2327;DHT22;1174;51.588;7.328;2023-02-28T03:40:09;-0.30;99.90
2327;DHT22;1174;51.588;7.328;2023-02-28T03:42:40;-0.30;99.90
2327;DHT22;1174;51.588;7.328;2023-02-28T03:45:11;-0.20;99.90
2327;DHT22;1174;51.588;7.328;2023-02-28T03:47:43;-0.20;99.90
2327;DHT22;1174;51.588;7.328;2023-02-28T03:50:16;-0.10;99.90
2327;DHT22;1174;51.588;7.328;2023-02-28T03:52:49;-0.30;99.90
2327;DHT22;1174;51.588;7.328;2023-02-28T03:55:18;-0.30;99.90
2327;DHT22;1174;51.588;7.328;2023-02-28T03:57:53;-0.40;99.90
2327;DHT22;1174;51.588;7.328;2023-02-28T04:00:28;-0.50;99.90
2327;DHT22;1174;51.588;7.328;2023-02-28T04:02:58;-0.50;99.90
2327;DHT22;1174;51.588;7.328;2023-02-28T04:05:25;-0.50;99.90
2327;DHT22;1174;51.588;7.328;2023-02-28T04:07:54;-0.50;99.90
2327;DHT22;1174;51.588;7.328;2023-02-28T04:10:29;-0.50;99.90
2327;DHT22;1174;51.588;7.328;2023-02-28T04:12:56;-0.40;99.90
2327;DHT22;1174;51.588;7.328;2023-02-28T04:15:23;-0.50;99.90
2327;DHT22;1174;51.588;7.328;2023-02-28T04:17:50;-0.60;99.90
2327;DHT22;1174;51.588;7.328;2023-02-28T04:20:17;-0.70;99.90
2327;DHT22;1174;51.588;7.328;2023-02-28T04:22:45;-0.70;99.90
2327;DHT22;1174;51.588;7.328;2023-02-28T04:25:14;-0.60;99.90
2327;DHT22;1174;51.588;7.328;2023-02-28T04:27:40;-0.60;99.90
2327;DHT22;1174;51.588;7.328;2023-02-28T04:30:11;-0.60;99.90
2327;DHT22;1174;51.588;7.328;2023-02-28T04:32:38;-0.60;99.90
2327;DHT22;1174;51.588;7.328;2023-02-28T04:35:06;-0.70;99.90
2327;DHT22;1174;51.588;7.328;2023-02-28T04:37:33;-0.70;99.90
2327;DHT22;1174;51.588;7.328;2023-02-28T04:40:03;-0.90;99.90
2327;DHT22;1174;51.588;7.328;2023-02-28T04:42:31;-0.80;99.90
2327;DHT22;1174;51.588;7.328;2023-02-28T04:45:01;-0.70;99.90
2327;DHT22;1174;51.588;7.328;2023-02-28T04:47:28;-0.70;99.90
2327;DHT22;1174;51.588;7.328;2023-02-28T04:49:55;-0.60;99.90
2327;DHT22;1174;51.588;7.328;2023-02-28T04:52:22;-0.70;99.90
2327;DHT22;1174;51.588;7.328;2023-02-28T04:54:49;-0.80;99.90
2327;DHT22;1174;51.588;7.328;2023-02-28T04:57:16;-0.80;99.90
2327;DHT22;1174;51.588;7.328;2023-02-28T04:59:45;-0.80;99.90
2327;DHT22;1174;51.588;7.328;2023-02-28T05:02:12;-0.80;99.90
2327;DHT22;1174;51.588;7.328;2023-02-28T05:04:39;-0.90;99.90
2327;DHT22;1174;51.588;7.328;2023-02-28T05:07:06;-0.80;99.90
2327;DHT22;1174;51.588;7.328;2023-02-28T05:09:33;-0.80;99.90
2327;DHT22;1174;51.588;7.328;2023-02-28T05:12:00;-1.00;99.90
2327;DHT22;1174;51.588;7.328;2023-02-28T05:14:27;-1.00;99.90
2327;DHT22;1174;51.588;7.328;2023-02-28T05:16:55;-1.00;99.90
2327;DHT22;1174;51.588;7.328;2023-02-28T05:19:22;-1.20;99.90
2327;DHT22;1174;51.588;7.328;2023-02-28T05:21:51;-1.20;99.90
2327;DHT22;1174;51.588;7.328;2023-02-28T05:24:19;-1.20;99.90
2327;DHT22;1174;51.588;7.328;2023-02-28T05:26:48;-1.00;99.90
2327;DHT22;1174;51.588;7.328;2023-02-28T05:29:15;-1.10;99.90
2327;DHT22;1174;51.588;7.328;2023-02-28T05:31:45;-1.20;99.90
2327;DHT22;1174;51.588;7.328;2023-02-28T05:34:14;-1.40;99.90
2327;DHT22;1174;51.588;7.328;2023-02-28T05:36:41;-1.40;99.90
2327;DHT22;1174;51.588;7.328;2023-02-28T05:39:11;-1.30;99.90
2327;DHT22;1174;51.588;7.328;2023-02-28T05:41:40;-1.40;99.90
2327;DHT22;1174;51.588;7.328;2023-02-28T05:44:07;-1.40;99.90
2327;DHT22;1174;51.588;7.328;2023-02-28T05:46:37;-1.40;99.90
2327;DHT22;1174;51.588;7.328;2023-02-28T05:49:04;-1.30;99.90
2327;DHT22;1174;51.588;7.328;2023-02-28T05:51:35;-1.30;99.90
2327;DHT22;1174;51.588;7.328;2023-02-28T05:54:05;-1.40;99.90
2327;DHT22;1174;51.588;7.328;2023-02-28T05:56:32;-1.50;99.90
2327;DHT22;1174;51.588;7.328;2023-02-28T05:59:00;-1.40;99.90
2327;DHT22;1174;51.588;7.328;2023-02-28T06:01:32;-1.40;99.90
2327;DHT22;1174;51.588;7.328;2023-02-28T06:04:00;-1.30;99.90
2327;DHT22;1174;51.588;7.328;2023-02-28T06:06:28;-1.20;99.90
2327;DHT22;1174;51.588;7.328;2023-02-28T06:08:57;-1.30;99.90
2327;DHT22;1174;51.588;7.328;2023-02-28T06:11:24;-1.30;99.90
2327;DHT22;1174;51.588;7.328;2023-02-28T06:13:53;-1.40;99.90
2327;DHT22;1174;51.588;7.328;2023-02-28T06:16:22;-1.40;99.90
2327;DHT22;1174;51.588;7.328;2023-02-28T06:18:49;-1.40;99.90
2327;DHT22;1174;51.588;7.328;2023-02-28T06:21:16;-1.30;99.90
2327;DHT22;1174;51.588;7.328;2023-02-28T06:23:43;-1.40;99.90
2327;DHT22;1174;51.588;7.328;2023-02-28T06:26:11;-1.50;99.90
2327;DHT22;1174;51.588;7.328;2023-02-28T06:28:38;-1.50;99.90
2327;DHT22;1174;51.588;7.328;2023-02-28T06:31:07;-1.50;99.90
2327;DHT22;1174;51.588;7.328;2023-02-28T06:33:34;-1.50;99.90
2327;DHT22;1174;51.588;7.328;2023-02-28T06:36:01;-1.60;99.90
2327;DHT22;1174;51.588;7.328;2023-02-28T06:38:28;-1.50;99.90
2327;DHT22;1174;51.588;7.328;2023-02-28T06:40:55;-1.50;99.90
2327;DHT22;1174;51.588;7.328;2023-02-28T06:43:25;-1.60;99.90
2327;DHT22;1174;51.588;7.328;2023-02-28T06:45:54;-1.50;99.90
2327;DHT22;1174;51.588;7.328;2023-02-28T06:48:22;-1.40;99.90
2327;DHT22;1174;51.588;7.328;2023-02-28T06:50:49;-1.40;99.90
2327;DHT22;1174;51.588;7.328;2023-02-28T06:53:16;-1.50;99.90
2327;DHT22;1174;51.588;7.328;2023-02-28T06:55:44;-1.30;99.90
2327;DHT22;1174;51.588;7.328;2023-02-28T06:58:10;-1.20;99.90
2327;DHT22;1174;51.588;7.328;2023-02-28T07:00:44;-1.10;99.90
2327;DHT22;1174;51.588;7.328;2023-02-28T07:03:12;-1.00;99.90
2327;DHT22;1174;51.588;7.328;2023-02-28T07:05:40;-0.70;99.90
2327;DHT22;1174;51.588;7.328;2023-02-28T07:08:07;-0.40;99.90
2327;DHT22;1174;51.588;7.328;2023-02-28T07:10:37;-0.30;99.90
2327;DHT22;1174;51.588;7.328;2023-02-28T07:13:06;-0.20;99.90
2327;DHT22;1174;51.588;7.328;2023-02-28T07:15:36;-0.30;99.90
2327;DHT22;1174;51.588;7.328;2023-02-28T07:18:04;-0.50;99.90
2327;DHT22;1174;51.588;7.328;2023-02-28T07:20:31;-0.50;99.90
2327;DHT22;1174;51.588;7.328;2023-02-28T07:22:58;-0.40;99.90
2327;DHT22;1174;51.588;7.328;2023-02-28T07:25:27;-0.20;99.90
2327;DHT22;1174;51.588;7.328;2023-02-28T07:27:55;-0.10;99.90
2327;DHT22;1174;51.588;7.328;2023-02-28T07:30:24;0.10;99.90
2327;DHT22;1174;51.588;7.328;2023-02-28T07:32:51;0.20;99.90
2327;DHT22;1174;51.588;7.328;2023-02-28T07:35:21;0.10;99.90
2327;DHT22;1174;51.588;7.328;2023-02-28T07:37:48;0.20;99.90
2327;DHT22;1174;51.588;7.328;2023-02-28T07:40:17;0.40;99.90
2327;DHT22;1174;51.588;7.328;2023-02-28T07:42:44;0.60;99.90
2327;DHT22;1174;51.588;7.328;2023-02-28T07:45:14;0.70;99.90
2327;DHT22;1174;51.588;7.328;2023-02-28T07:47:42;1.10;99.90
2327;DHT22;1174;51.588;7.328;2023-02-28T07:50:11;1.20;99.90
2327;DHT22;1174;51.588;7.328;2023-02-28T07:52:40;1.20;99.90
2327;DHT22;1174;51.588;7.328;2023-02-28T07:55:09;1.20;99.90
2327;DHT22;1174;51.588;7.328;2023-02-28T07:57:36;1.40;99.90
2327;DHT22;1174;51.588;7.328;2023-02-28T08:00:03;1.60;99.90
2327;DHT22;1174;51.588;7.328;2023-02-28T08:02:35;2.40;99.90
2327;DHT22;1174;51.588;7.328;2023-02-28T08:05:03;3.00;99.90
2327;DHT22;1174;51.588;7.328;2023-02-28T08:07:33;2.80;99.90
2327;DHT22;1174;51.588;7.328;2023-02-28T08:10:02;3.00;99.90
2327;DHT22;1174;51.588;7.328;2023-02-28T08:12:31;3.40;99.90
2327;DHT22;1174;51.588;7.328;2023-02-28T08:14:58;3.50;99.90
2327;DHT22;1174;51.588;7.328;2023-02-28T08:17:25;3.50;99.90
2327;DHT22;1174;51.588;7.328;2023-02-28T08:19:52;4.10;99.90
2327;DHT22;1174;51.588;7.328;2023-02-28T08:22:19;4.50;99.90
2327;DHT22;1174;51.588;7.328;2023-02-28T08:24:47;4.70;99.90
2327;DHT22;1174;51.588;7.328;2023-02-28T08:27:16;5.10;99.90
2327;DHT22;1174;51.588;7.328;2023-02-28T08:29:43;6.00;99.90
2327;DHT22;1174;51.588;7.328;2023-02-28T08:32:10;6.90;99.90
2327;DHT22;1174;51.588;7.328;2023-02-28T08:34:39;7.40;99.90
2327;DHT22;1174;51.588;7.328;2023-02-28T08:37:06;7.40;99.90
2327;DHT22;1174;51.588;7.328;2023-02-28T08:39:34;7.30;99.30
2327;DHT22;1174;51.588;7.328;2023-02-28T08:42:04;7.50;99.00
2327;DHT22;1174;51.588;7.328;2023-02-28T08:44:33;7.70;98.10
2327;DHT22;1174;51.588;7.328;2023-02-28T08:47:00;8.10;98.10
2327;DHT22;1174;51.588;7.328;2023-02-28T08:49:26;9.10;96.40
2327;DHT22;1174;51.588;7.328;2023-02-28T08:51:54;9.90;93.70
2327;DHT22;1174;51.588;7.328;2023-02-28T08:54:22;10.30;91.50
2327;DHT22;1174;51.588;7.328;2023-02-28T08:56:49;10.90;90.30
2327;DHT22;1174;51.588;7.328;2023-02-28T08:59:17;11.50;83.70
2327;DHT22;1174;51.588;7.328;2023-02-28T09:01:45;11.70;78.20
2327;DHT22;1174;51.588;7.328;2023-02-28T09:04:12;11.30;76.90
2327;DHT22;1174;51.588;7.328;2023-02-28T09:06:39;10.80;73.40
2327;DHT22;1174;51.588;7.328;2023-02-28T09:09:06;10.50;76.40
2327;DHT22;1174;51.588;7.328;2023-02-28T09:11:35;11.10;74.50
2327;DHT22;1174;51.588;7.328;2023-02-28T09:14:02;11.30;70.90
2327;DHT22;1174;51.588;7.328;2023-02-28T09:16:31;11.40;69.50
2327;DHT22;1174;51.588;7.328;2023-02-28T09:19:00;11.40;67.90
2327;DHT22;1174;51.588;7.328;2023-02-28T09:21:28;11.40;68.20
2327;DHT22;1174;51.588;7.328;2023-02-28T09:23:56;11.10;65.70
2327;DHT22;1174;51.588;7.328;2023-02-28T09:26:25;10.50;66.80
2327;DHT22;1174;51.588;7.328;2023-02-28T09:28:54;10.70;69.20
2327;DHT22;1174;51.588;7.328;2023-02-28T09:31:24;11.60;66.20
2327;DHT22;1174;51.588;7.328;2023-02-28T09:33:52;11.40;65.60
2327;DHT22;1174;51.588;7.328;2023-02-28T09:36:22;11.80;66.30
2327;DHT22;1174;51.588;7.328;2023-02-28T09:38:50;12.00;64.70
2327;DHT22;1174;51.588;7.328;2023-02-28T09:41:21;11.60;63.90
2327;DHT22;1174;51.588;7.328;2023-02-28T09:43:52;11.50;64.40
2327;DHT22;1174;51.588;7.328;2023-02-28T09:46:32;12.20;65.40
2327;DHT22;1174;51.588;7.328;2023-02-28T09:49:02;12.00;61.20
2327;DHT22;1174;51.588;7.328;2023-02-28T09:51:40;11.40;60.90
2327;DHT22;1174;51.588;7.328;2023-02-28T09:54:14;11.30;60.40
2327;DHT22;1174;51.588;7.328;2023-02-28T09:56:47;11.50;59.10
2327;DHT22;1174;51.588;7.328;2023-02-28T09:59:28;11.60;59.60
2327;DHT22;1174;51.588;7.328;2023-02-28T10:02:01;11.80;59.40
2327;DHT22;1174;51.588;7.328;2023-02-28T10:04:40;11.80;58.30
2327;DHT22;1174;51.588;7.328;2023-02-28T10:07:20;11.40;58.00
2327;DHT22;1174;51.588;7.328;2023-02-28T10:09:52;10.90;57.90
2327;DHT22;1174;51.588;7.328;2023-02-28T10:12:20;11.50;59.20
2327;DHT22;1174;51.588;7.328;2023-02-28T10:14:52;12.40;57.70
2327;DHT22;1174;51.588;7.328;2023-02-28T10:17:25;12.90;57.10
2327;DHT22;1174;51.588;7.328;2023-02-28T10:19:58;13.30;56.90
2327;DHT22;1174;51.588;7.328;2023-02-28T10:22:37;12.40;55.70
2327;DHT22;1174;51.588;7.328;2023-02-28T10:25:17;11.80;57.30
2327;DHT22;1174;51.588;7.328;2023-02-28T10:27:44;12.30;55.90
2327;DHT22;1174;51.588;7.328;2023-02-28T10:30:14;12.00;54.70
2327;DHT22;1174;51.588;7.328;2023-02-28T10:32:47;11.80;55.10
2327;DHT22;1174;51.588;7.328;2023-02-28T10:35:19;11.60;54.30
2327;DHT22;1174;51.588;7.328;2023-02-28T10:37:49;11.20;53.50
2327;DHT22;1174;51.588;7.328;2023-02-28T10:40:30;10.50;54.40
2327;DHT22;1174;51.588;7.328;2023-02-28T10:43:00;10.70;54.70
2327;DHT22;1174;51.588;7.328;2023-02-28T10:45:29;11.20;53.50
2327;DHT22;1174;51.588;7.328;2023-02-28T10:47:59;11.20;53.70
2327;DHT22;1174;51.588;7.328;2023-02-28T10:50:32;10.40;52.50
2327;DHT22;1174;51.588;7.328;2023-02-28T10:53:21;10.20;53.30
2327;DHT22;1174;51.588;7.328;2023-02-28T10:55:57;10.20;53.80
2327;DHT22;1174;51.588;7.328;2023-02-28T10:58:28;10.00;54.30
2327;DHT22;1174;51.588;7.328;2023-02-28T11:00:56;9.60;55.40
2327;DHT22;1174;51.588;7.328;2023-02-28T11:03:29;9.90;55.20
2327;DHT22;1174;51.588;7.328;2023-02-28T11:05:56;10.50;55.00
2327;DHT22;1174;51.588;7.328;2023-02-28T11:08:28;10.40;54.40
2327;DHT22;1174;51.588;7.328;2023-02-28T11:10:57;10.10;53.40
2327;DHT22;1174;51.588;7.328;2023-02-28T11:13:27;10.50;53.80
2327;DHT22;1174;51.588;7.328;2023-02-28T11:15:56;10.70;53.50
2327;DHT22;1174;51.588;7.328;2023-02-28T11:18:27;10.60;53.90
2327;DHT22;1174;51.588;7.328;2023-02-28T11:20:58;10.00;53.70
2327;DHT22;1174;51.588;7.328;2023-02-28T11:23:30;10.00;55.00
2327;DHT22;1174;51.588;7.328;2023-02-28T11:25:59;9.60;55.60
2327;DHT22;1174;51.588;7.328;2023-02-28T11:28:29;8.90;55.90
2327;DHT22;1174;51.588;7.328;2023-02-28T11:33:49;10.30;55.40
2327;DHT22;1174;51.588;7.328;2023-02-28T11:36:19;10.00;54.90
2327;DHT22;1174;51.588;7.328;2023-02-28T11:38:52;9.50;56.90
2327;DHT22;1174;51.588;7.328;2023-02-28T11:41:32;9.20;57.20
2327;DHT22;1174;51.588;7.328;2023-02-28T11:44:22;9.40;57.30
2327;DHT22;1174;51.588;7.328;2023-02-28T11:46:52;9.80;57.20
2327;DHT22;1174;51.588;7.328;2023-02-28T11:49:30;8.70;57.60
2327;DHT22;1174;51.588;7.328;2023-02-28T11:52:01;8.80;59.20
2327;DHT22;1174;51.588;7.328;2023-02-28T11:54:54;9.60;58.90
2327;DHT22;1174;51.588;7.328;2023-02-28T11:57:35;10.20;57.10
2327;DHT22;1174;51.588;7.328;2023-02-28T12:00:11;10.00;56.90
2327;DHT22;1174;51.588;7.328;2023-02-28T12:02:54;9.60;58.80
2327;DHT22;1174;51.588;7.328;2023-02-28T12:05:30;10.10;58.20
2327;DHT22;1174;51.588;7.328;2023-02-28T12:08:10;10.60;57.70
2327;DHT22;1174;51.588;7.328;2023-02-28T12:10:53;11.20;58.20
2327;DHT22;1174;51.588;7.328;2023-02-28T12:13:26;11.90;57.70
2327;DHT22;1174;51.588;7.328;2023-02-28T12:19:07;13.00;57.70
2327;DHT22;1174;51.588;7.328;2023-02-28T12:21:49;13.00;56.90
2327;DHT22;1174;51.588;7.328;2023-02-28T12:24:44;14.00;55.10
2327;DHT22;1174;51.588;7.328;2023-02-28T12:27:28;13.00;55.70
2327;DHT22;1174;51.588;7.328;2023-02-28T12:29:58;12.10;55.70
2327;DHT22;1174;51.588;7.328;2023-02-28T12:32:32;10.70;56.60
2327;DHT22;1174;51.588;7.328;2023-02-28T12:35:06;10.70;57.90
2327;DHT22;1174;51.588;7.328;2023-02-28T12:37:40;11.20;58.10
2327;DHT22;1174;51.588;7.328;2023-02-28T12:40:13;11.00;58.00
2327;DHT22;1174;51.588;7.328;2023-02-28T12:42:44;11.40;58.70
2327;DHT22;1174;51.588;7.328;2023-02-28T12:45:18;12.10;58.00
2327;DHT22;1174;51.588;7.328;2023-02-28T12:47:50;11.40;58.30
2327;DHT22;1174;51.588;7.328;2023-02-28T12:50:19;11.40;58.70
2327;DHT22;1174;51.588;7.328;2023-02-28T12:52:53;12.10;58.60
2327;DHT22;1174;51.588;7.328;2023-02-28T12:55:29;12.40;58.90
2327;DHT22;1174;51.588;7.328;2023-02-28T12:58:10;12.80;57.10
2327;DHT22;1174;51.588;7.328;2023-02-28T13:01:02;13.00;56.40
2327;DHT22;1174;51.588;7.328;2023-02-28T13:04:08;12.80;56.60
2327;DHT22;1174;51.588;7.328;2023-02-28T13:06:59;13.00;57.20
2327;DHT22;1174;51.588;7.328;2023-02-28T13:09:29;13.80;57.30
2327;DHT22;1174;51.588;7.328;2023-02-28T13:11:56;14.40;54.70
2327;DHT22;1174;51.588;7.328;2023-02-28T13:14:28;13.40;56.20
2327;DHT22;1174;51.588;7.328;2023-02-28T13:17:02;13.90;56.60
2327;DHT22;1174;51.588;7.328;2023-02-28T13:19:34;13.80;55.40
2327;DHT22;1174;51.588;7.328;2023-02-28T13:22:02;13.00;55.00
2327;DHT22;1174;51.588;7.328;2023-02-28T13:24:48;11.80;56.50
2327;DHT22;1174;51.588;7.328;2023-02-28T13:27:31;12.70;57.90
2327;DHT22;1174;51.588;7.328;2023-02-28T13:30:01;12.90;55.50
2327;DHT22;1174;51.588;7.328;2023-02-28T13:32:31;11.80;55.80
2327;DHT22;1174;51.588;7.328;2023-02-28T13:38:15;11.60;58.00
2327;DHT22;1174;51.588;7.328;2023-02-28T13:40:43;12.80;57.30
2327;DHT22;1174;51.588;7.328;2023-02-28T13:43:10;13.70;56.30
2327;DHT22;1174;51.588;7.328;2023-02-28T13:45:38;13.40;55.50
2327;DHT22;1174;51.588;7.328;2023-02-28T13:48:16;13.80;56.20
2327;DHT22;1174;51.588;7.328;2023-02-28T13:50:45;14.00;55.50
2327;DHT22;1174;51.588;7.328;2023-02-28T13:53:43;14.40;55.10
2327;DHT22;1174;51.588;7.328;2023-02-28T13:56:34;14.70;55.40
2327;DHT22;1174;51.588;7.328;2023-02-28T13:59:15;15.30;54.70
2327;DHT22;1174;51.588;7.328;2023-02-28T14:01:55;14.50;54.10
2327;DHT22;1174;51.588;7.328;2023-02-28T14:04:44;13.00;54.40
2327;DHT22;1174;51.588;7.328;2023-02-28T14:07:18;11.90;56.90
2327;DHT22;1174;51.588;7.328;2023-02-28T14:09:58;12.00;57.20
2327;DHT22;1174;51.588;7.328;2023-02-28T14:15:41;13.30;56.30
2327;DHT22;1174;51.588;7.328;2023-02-28T14:18:21;12.90;54.70
2327;DHT22;1174;51.588;7.328;2023-02-28T14:20:52;11.20;56.70
2327;DHT22;1174;51.588;7.328;2023-02-28T14:23:32;11.70;57.50
2327;DHT22;1174;51.588;7.328;2023-02-28T14:26:13;12.60;56.40
2327;DHT22;1174;51.588;7.328;2023-02-28T14:28:50;13.00;55.00
2327;DHT22;1174;51.588;7.328;2023-02-28T14:31:25;12.40;55.70
2327;DHT22;1174;51.588;7.328;2023-02-28T14:34:20;12.70;56.30
2327;DHT22;1174;51.588;7.328;2023-02-28T14:36:52;13.70;56.90
2327;DHT22;1174;51.588;7.328;2023-02-28T14:39:22;14.10;54.90
2327;DHT22;1174;51.588;7.328;2023-02-28T14:41:49;14.70;55.20
2327;DHT22;1174;51.588;7.328;2023-02-28T14:44:18;13.80;54.50
2327;DHT22;1174;51.588;7.328;2023-02-28T14:46:47;13.30;56.60
2327;DHT22;1174;51.588;7.328;2023-02-28T14:49:23;13.20;56.10
2327;DHT22;1174;51.588;7.328;2023-02-28T14:52:02;13.40;56.90
2327;DHT22;1174;51.588;7.328;2023-02-28T14:54:30;13.10;57.30
2327;DHT22;1174;51.588;7.328;2023-02-28T14:56:57;13.00;56.50
2327;DHT22;1174;51.588;7.328;2023-02-28T14:59:27;12.20;57.90
2327;DHT22;1174;51.588;7.328;2023-02-28T15:02:16;12.20;58.00
2327;DHT22;1174;51.588;7.328;2023-02-28T15:04:55;12.00;58.40
2327;DHT22;1174;51.588;7.328;2023-02-28T15:07:22;12.30;58.90
2327;DHT22;1174;51.588;7.328;2023-02-28T15:10:08;12.50;57.90
2327;DHT22;1174;51.588;7.328;2023-02-28T15:12:35;12.10;57.80
2327;DHT22;1174;51.588;7.328;2023-02-28T15:15:04;12.80;59.10
2327;DHT22;1174;51.588;7.328;2023-02-28T15:17:34;13.20;57.20
2327;DHT22;1174;51.588;7.328;2023-02-28T15:20:04;12.90;56.90
2327;DHT22;1174;51.588;7.328;2023-02-28T15:22:35;13.00;57.20
2327;DHT22;1174;51.588;7.328;2023-02-28T15:25:05;12.50;57.30
2327;DHT22;1174;51.588;7.328;2023-02-28T15:27:35;12.30;56.70
2327;DHT22;1174;51.588;7.328;2023-02-28T15:30:11;11.80;56.30
2327;DHT22;1174;51.588;7.328;2023-02-28T15:32:42;11.40;57.60
2327;DHT22;1174;51.588;7.328;2023-02-28T15:35:28;11.10;57.60
2327;DHT22;1174;51.588;7.328;2023-02-28T15:37:57;10.60;57.90
2327;DHT22;1174;51.588;7.328;2023-02-28T15:40:28;10.50;59.10
2327;DHT22;1174;51.588;7.328;2023-02-28T15:43:04;11.10;59.30
2327;DHT22;1174;51.588;7.328;2023-02-28T15:45:37;10.80;57.50
2327;DHT22;1174;51.588;7.328;2023-02-28T15:48:15;10.40;58.00
2327;DHT22;1174;51.588;7.328;2023-02-28T15:50:44;10.60;57.80
2327;DHT22;1174;51.588;7.328;2023-02-28T15:53:14;10.20;58.50
2327;DHT22;1174;51.588;7.328;2023-02-28T15:55:42;10.00;58.60
2327;DHT22;1174;51.588;7.328;2023-02-28T15:58:12;9.30;60.40
2327;DHT22;1174;51.588;7.328;2023-02-28T16:00:39;8.70;61.70
2327;DHT22;1174;51.588;7.328;2023-02-28T16:03:24;8.30;63.40
2327;DHT22;1174;51.588;7.328;2023-02-28T16:06:21;8.40;64.10
2327;DHT22;1174;51.588;7.328;2023-02-28T16:08:51;8.10;65.10
2327;DHT22;1174;51.588;7.328;2023-02-28T16:11:20;7.90;65.80
2327;DHT22;1174;51.588;7.328;2023-02-28T16:13:48;7.80;66.20
2327;DHT22;1174;51.588;7.328;2023-02-28T16:16:16;7.90;67.10
2327;DHT22;1174;51.588;7.328;2023-02-28T16:18:43;7.80;67.40
2327;DHT22;1174;51.588;7.328;2023-02-28T16:21:10;7.70;67.80
2327;DHT22;1174;51.588;7.328;2023-02-28T16:23:39;7.50;68.60
2327;DHT22;1174;51.588;7.328;2023-02-28T16:26:08;7.40;70.50
2327;DHT22;1174;51.588;7.328;2023-02-28T16:28:36;7.50;70.50
2327;DHT22;1174;51.588;7.328;2023-02-28T16:31:06;7.60;70.40
2327;DHT22;1174;51.588;7.328;2023-02-28T16:33:33;7.60;70.70
2327;DHT22;1174;51.588;7.328;2023-02-28T16:36:01;7.60;71.00
2327;DHT22;1174;51.588;7.328;2023-02-28T16:38:28;7.50;71.20
2327;DHT22;1174;51.588;7.328;2023-02-28T16:40:59;7.40;71.60
2327;DHT22;1174;51.588;7.328;2023-02-28T16:43:26;7.50;71.90
2327;DHT22;1174;51.588;7.328;2023-02-28T16:45:55;7.30;72.00
2327;DHT22;1174;51.588;7.328;2023-02-28T16:48:24;7.10;72.40
2327;DHT22;1174;51.588;7.328;2023-02-28T16:50:51;7.00;73.20
2327;DHT22;1174;51.588;7.328;2023-02-28T16:53:19;6.90;73.20
2327;DHT22;1174;51.588;7.328;2023-02-28T16:55:46;6.80;73.80
2327;DHT22;1174;51.588;7.328;2023-02-28T16:58:16;6.70;74.40